sensor_id;sensor_type;location;lat;lon;timestamp;temperature;humidity
21744;DHT22;11034;48.556;9.342;2023-11-19T00:01:47;7.80;99.90
21744;DHT22;11034;48.556;9.342;2023-11-19T00:04:16;7.90;99.90
21744;DHT22;11034;48.556;9.342;2023-11-19T00:06:45;7.90;99.90
21744;DHT22;11034;48.556;9.342;2023-11-19T00:09:13;8.00;99.90
21744;DHT22;11034;48.556;9.342;2023-11-19T00:11:43;8.00;99.90
21744;DHT22;11034;48.556;9.342;2023-11-19T00:14:20;8.10;99.90
21744;DHT22;11034;48.556;9.342;2023-11-19T00:16:48;8.30;99.90
21744;DHT22;11034;48.556;9.342;2023-11-19T00:19:19;8.30;99.90
21744;DHT22;11034;48.556;9.342;2023-11-19T00:21:48;8.40;99.90
21744;DHT22;11034;48.556;9.342;2023-11-19T00:24:16;8.40;99.90
21744;DHT22;11034;48.556;9.342;2023-11-19T00:26:44;8.60;99.90
21744;DHT22;11034;48.556;9.342;2023-11-19T00:29:13;8.60;99.90
21744;DHT22;11034;48.556;9.342;2023-11-19T02:06:33;9.50;99.90
21744;DHT22;11034;48.556;9.342;2023-11-19T02:09:02;9.70;99.90
21744;DHT22;11034;48.556;9.342;2023-11-19T02:11:34;9.70;99.90
21744;DHT22;11034;48.556;9.342;2023-11-19T02:14:03;9.70;99.90
21744;DHT22;11034;48.556;9.342;2023-11-19T02:16:33;9.60;99.90
21744;DHT22;11034;48.556;9.342;2023-11-19T02:19:01;9.70;99.90
21744;DHT22;11034;48.556;9.342;2023-11-19T02:21:30;9.60;99.90
21744;DHT22;11034;48.556;9.342;2023-11-19T02:23:58;9.60;99.90
21744;DHT22;11034;48.556;9.342;2023-11-19T02:26:35;9.60;99.90
21744;DHT22;11034;48.556;9.342;2023-11-19T02:29:06;9.60;99.90
21744;DHT22;11034;48.556;9.342;2023-11-19T02:31:35;9.60;99.90
21744;DHT22;11034;48.556;9.342;2023-11-19T02:34:03;9.60;99.90
21744;DHT22;11034;48.556;9.342;2023-11-19T02:36:32;9.60;99.90
21744;DHT22;11034;48.556;9.342;2023-11-19T02:39:00;9.60;99.90
21744;DHT22;11034;48.556;9.342;2023-11-19T02:41:34;9.60;99.90
21744;DHT22;11034;48.556;9.342;2023-11-19T02:44:12;9.60;99.90
21744;DHT22;11034;48.556;9.342;2023-11-19T02:46:40;9.60;99.90
21744;DHT22;11034;48.556;9.342;2023-11-19T02:49:09;9.60;99.90
21744;DHT22;11034;48.556;9.342;2023-11-19T02:51:37;9.60;99.90
21744;DHT22;11034;48.556;9.342;2023-11-19T02:54:05;9.60;99.90
21744;DHT22;11034;48.556;9.342;2023-11-19T02:56:34;9.60;99.90
21744;DHT22;11034;48.556;9.342;2023-11-19T02:59:04;9.60;99.90
21744;DHT22;11034;48.556;9.342;2023-11-19T03:01:43;9.60;99.90
21744;DHT22;11034;48.556;9.342;2023-11-19T03:04:17;9.60;99.90
21744;DHT22;11034;48.556;9.342;2023-11-19T03:06:47;9.60;99.90
21744;DHT22;11034;48.556;9.342;2023-11-19T03:09:15;9.60;99.90
21744;DHT22;11034;48.556;9.342;2023-11-19T03:11:43;9.60;99.90
21744;DHT22;11034;48.556;9.342;2023-11-19T03:14:11;9.60;99.90
21744;DHT22;11034;48.556;9.342;2023-11-19T03:16:40;9.60;99.90
21744;DHT22;11034;48.556;9.342;2023-11-19T03:19:09;9.50;99.90
21744;DHT22;11034;48.556;9.342;2023-11-19T08:27:54;11.70;99.90
21744;DHT22;11034;48.556;9.342;2023-11-19T08:30:22;11.80;99.90
21744;DHT22;11034;48.556;9.342;2023-11-19T08:32:50;11.80;99.90
21744;DHT22;11034;48.556;9.342;2023-11-19T08:35:18;11.90;99.90
21744;DHT22;11034;48.556;9.342;2023-11-19T08:37:46;11.90;99.90
21744;DHT22;11034;48.556;9.342;2023-11-19T08:40:20;11.90;99.90
21744;DHT22;11034;48.556;9.342;2023-11-19T08:42:49;11.90;99.90
21744;DHT22;11034;48.556;9.342;2023-11-19T08:45:18;12.10;99.90
21744;DHT22;11034;48.556;9.342;2023-11-19T08:47:46;12.10;99.90
21744;DHT22;11034;48.556;9.342;2023-11-19T08:50:14;12.20;99.90
21744;DHT22;11034;48.556;9.342;2023-11-19T08:52:45;12.20;99.90
21744;DHT22;11034;48.556;9.342;2023-11-19T08:55:13;12.40;99.90
21744;DHT22;11034;48.556;9.342;2023-11-19T08:57:41;12.40;99.90
21744;DHT22;11034;48.556;9.342;2023-11-19T09:00:11;12.50;99.90
21744;DHT22;11034;48.556;9.342;2023-11-19T09:02:42;12.60;99.90
21744;DHT22;11034;48.556;9.342;2023-11-19T09:05:11;12.50;99.90
21744;DHT22;11034;48.556;9.342;2023-11-19T09:07:40;12.50;99.90
21744;DHT22;11034;48.556;9.342;2023-11-19T09:10:08;12.40;99.90
21744;DHT22;11034;48.556;9.342;2023-11-19T09:12:38;12.40;99.90
21744;DHT22;11034;48.556;9.342;2023-11-19T09:15:07;12.40;99.90
21744;DHT22;11034;48.556;9.342;2023-11-19T09:17:38;12.50;99.90
21744;DHT22;11034;48.556;9.342;2023-11-19T09:20:08;12.60;99.90
21744;DHT22;11034;48.556;9.342;2023-11-19T09:22:39;12.70;99.90
21744;DHT22;11034;48.556;9.342;2023-11-19T09:25:08;12.80;99.90
21744;DHT22;11034;48.556;9.342;2023-11-19T09:27:36;12.80;99.90
21744;DHT22;11034;48.556;9.342;2023-11-19T09:30:06;12.90;99.90
21744;DHT22;11034;48.556;9.342;2023-11-19T09:32:34;12.90;99.90
21744;DHT22;11034;48.556;9.342;2023-11-19T09:35:06;12.90;99.90
21744;DHT22;11034;48.556;9.342;2023-11-19T09:37:35;12.90;99.90
21744;DHT22;11034;48.556;9.342;2023-11-19T09:40:04;12.80;99.90
21744;DHT22;11034;48.556;9.342;2023-11-19T09:42:38;12.90;99.90
21744;DHT22;11034;48.556;9.342;2023-11-19T09:45:12;12.90;99.90
21744;DHT22;11034;48.556;9.342;2023-11-19T09:47:42;13.00;99.90
21744;DHT22;11034;48.556;9.342;2023-11-19T09:50:16;13.00;99.90
21744;DHT22;11034;48.556;9.342;2023-11-19T09:52:46;12.90;99.90
21744;DHT22;11034;48.556;9.342;2023-11-19T09:55:14;12.80;99.90
21744;DHT22;11034;48.556;9.342;2023-11-19T09:57:43;12.80;99.90
21744;DHT22;11034;48.556;9.342;2023-11-19T10:00:13;12.80;99.90
21744;DHT22;11034;48.556;9.342;2023-11-19T10:02:43;12.80;99.90
21744;DHT22;11034;48.556;9.342;2023-11-19T10:05:15;12.90;99.90
21744;DHT22;11034;48.556;9.342;2023-11-19T10:07:44;12.80;99.90
21744;DHT22;11034;48.556;9.342;2023-11-19T10:10:12;12.80;99.90
21744;DHT22;11034;48.556;9.342;2023-11-19T10:12:45;12.80;99.90
21744;DHT22;11034;48.556;9.342;2023-11-19T10:15:21;12.80;99.90
21744;DHT22;11034;48.556;9.342;2023-11-19T10:17:49;12.90;99.90
21744;DHT22;11034;48.556;9.342;2023-11-19T10:20:18;12.90;99.90
21744;DHT22;11034;48.556;9.342;2023-11-19T10:22:47;12.90;99.90
21744;DHT22;11034;48.556;9.342;2023-11-19T10:25:22;13.10;99.90
21744;DHT22;11034;48.556;9.342;2023-11-19T10:27:51;13.20;99.90
21744;DHT22;11034;48.556;9.342;2023-11-19T10:30:21;13.30;99.90
21744;DHT22;11034;48.556;9.342;2023-11-19T10:33:05;13.40;99.90
21744;DHT22;11034;48.556;9.342;2023-11-19T10:35:36;13.40;99.90
21744;DHT22;11034;48.556;9.342;2023-11-19T10:38:14;13.50;99.90
21744;DHT22;11034;48.556;9.342;2023-11-19T10:40:43;13.50;99.90
21744;DHT22;11034;48.556;9.342;2023-11-19T10:43:11;13.50;99.90
21744;DHT22;11034;48.556;9.342;2023-11-19T10:45:40;13.50;99.90
21744;DHT22;11034;48.556;9.342;2023-11-19T10:48:11;13.40;99.90
21744;DHT22;11034;48.556;9.342;2023-11-19T10:50:46;13.30;99.90
21744;DHT22;11034;48.556;9.342;2023-11-19T10:53:17;13.20;99.90
21744;DHT22;11034;48.556;9.342;2023-11-19T10:55:47;13.40;99.90
21744;DHT22;11034;48.556;9.342;2023-11-19T10:58:16;13.40;99.90
21744;DHT22;11034;48.556;9.342;2023-11-19T11:00:50;13.30;99.90
21744;DHT22;11034;48.556;9.342;2023-11-19T11:03:21;13.20;99.90
21744;DHT22;11034;48.556;9.342;2023-11-19T11:05:54;13.20;99.90
21744;DHT22;11034;48.556;9.342;2023-11-19T11:08:22;13.20;99.90
21744;DHT22;11034;48.556;9.342;2023-11-19T11:10:53;13.20;99.90
21744;DHT22;11034;48.556;9.342;2023-11-19T11:13:24;13.30;99.90
21744;DHT22;11034;48.556;9.342;2023-11-19T11:15:56;13.40;99.90
21744;DHT22;11034;48.556;9.342;2023-11-19T11:18:25;13.50;99.90
21744;DHT22;11034;48.556;9.342;2023-11-19T11:21:00;13.30;99.90
21744;DHT22;11034;48.556;9.342;2023-11-19T11:23:43;13.50;99.90
21744;DHT22;11034;48.556;9.342;2023-11-19T11:26:29;13.60;99.90
21744;DHT22;11034;48.556;9.342;2023-11-19T11:29:01;13.60;99.90
21744;DHT22;11034;48.556;9.342;2023-11-19T12:40:15;14.60;99.90
21744;DHT22;11034;48.556;9.342;2023-11-19T12:42:44;14.60;99.90
21744;DHT22;11034;48.556;9.342;2023-11-19T12:45:13;14.80;99.90
21744;DHT22;11034;48.556;9.342;2023-11-19T12:47:43;14.80;99.90
21744;DHT22;11034;48.556;9.342;2023-11-19T12:50:17;14.70;99.90
21744;DHT22;11034;48.556;9.342;2023-11-19T12:52:56;14.50;99.90
21744;DHT22;11034;48.556;9.342;2023-11-19T12:55:27;14.40;99.90
21744;DHT22;11034;48.556;9.342;2023-11-19T12:57:57;14.40;99.90
21744;DHT22;11034;48.556;9.342;2023-11-19T13:00:27;14.30;99.90
21744;DHT22;11034;48.556;9.342;2023-11-19T13:02:56;14.20;99.90
21744;DHT22;11034;48.556;9.342;2023-11-19T13:06:00;14.30;99.90
21744;DHT22;11034;48.556;9.342;2023-11-19T13:09:05;14.30;99.90
21744;DHT22;11034;48.556;9.342;2023-11-19T13:11:34;14.40;99.90
21744;DHT22;11034;48.556;9.342;2023-11-19T13:14:05;14.50;99.90
21744;DHT22;11034;48.556;9.342;2023-11-19T13:16:49;14.40;99.90
21744;DHT22;11034;48.556;9.342;2023-11-19T13:19:22;14.40;99.90
21744;DHT22;11034;48.556;9.342;2023-11-19T13:21:56;14.30;99.90
21744;DHT22;11034;48.556;9.342;2023-11-19T13:24:25;14.30;99.90
21744;DHT22;11034;48.556;9.342;2023-11-19T13:26:56;14.50;99.90
21744;DHT22;11034;48.556;9.342;2023-11-19T13:29:34;14.50;99.90
21744;DHT22;11034;48.556;9.342;2023-11-19T13:32:06;14.40;99.90
21744;DHT22;11034;48.556;9.342;2023-11-19T13:34:37;14.40;99.90
21744;DHT22;11034;48.556;9.342;2023-11-19T13:37:08;14.20;99.90
21744;DHT22;11034;48.556;9.342;2023-11-19T13:39:41;14.20;99.90
21744;DHT22;11034;48.556;9.342;2023-11-19T13:42:15;14.30;99.90
21744;DHT22;11034;48.556;9.342;2023-11-19T13:44:49;14.20;99.90
21744;DHT22;11034;48.556;9.342;2023-11-19T13:47:21;14.20;99.90
21744;DHT22;11034;48.556;9.342;2023-11-19T13:49:50;14.20;99.90
21744;DHT22;11034;48.556;9.342;2023-11-19T13:52:19;14.20;99.90
21744;DHT22;11034;48.556;9.342;2023-11-19T13:54:53;14.20;99.90
21744;DHT22;11034;48.556;9.342;2023-11-19T13:57:23;14.20;99.90
21744;DHT22;11034;48.556;9.342;2023-11-19T13:59:51;14.00;99.90
21744;DHT22;11034;48.556;9.342;2023-11-19T14:02:19;13.90;99.90
21744;DHT22;11034;48.556;9.342;2023-11-19T14:04:47;13.80;99.90
21744;DHT22;11034;48.556;9.342;2023-11-19T14:07:16;13.70;99.90
21744;DHT22;11034;48.556;9.342;2023-11-19T14:09:45;13.70;99.90
21744;DHT22;11034;48.556;9.342;2023-11-19T14:12:14;13.70;99.90
21744;DHT22;11034;48.556;9.342;2023-11-19T14:14:43;13.60;99.90
21744;DHT22;11034;48.556;9.342;2023-11-19T14:17:11;13.50;99.90
21744;DHT22;11034;48.556;9.342;2023-11-19T14:19:40;13.40;99.90
21744;DHT22;11034;48.556;9.342;2023-11-19T14:22:09;13.30;99.90
21744;DHT22;11034;48.556;9.342;2023-11-19T14:24:37;13.30;99.90
21744;DHT22;11034;48.556;9.342;2023-11-19T14:27:06;13.20;99.90
21744;DHT22;11034;48.556;9.342;2023-11-19T14:29:36;13.20;99.90
21744;DHT22;11034;48.556;9.342;2023-11-19T14:32:05;13.20;99.90
21744;DHT22;11034;48.556;9.342;2023-11-19T14:34:48;13.20;99.90
21744;DHT22;11034;48.556;9.342;2023-11-19T14:37:19;13.20;99.90
21744;DHT22;11034;48.556;9.342;2023-11-19T14:39:47;13.20;99.90
21744;DHT22;11034;48.556;9.342;2023-11-19T14:42:18;13.20;99.90
21744;DHT22;11034;48.556;9.342;2023-11-19T14:44:54;13.20;99.90
21744;DHT22;11034;48.556;9.342;2023-11-19T14:51:18;13.10;99.90
21744;DHT22;11034;48.556;9.342;2023-11-19T14:54:12;13.00;99.90
21744;DHT22;11034;48.556;9.342;2023-11-19T14:56:42;12.90;99.90
21744;DHT22;11034;48.556;9.342;2023-11-19T14:59:13;12.90;99.90
21744;DHT22;11034;48.556;9.342;2023-11-19T15:01:45;12.90;99.90
21744;DHT22;11034;48.556;9.342;2023-11-19T15:04:13;13.00;99.90
21744;DHT22;11034;48.556;9.342;2023-11-19T15:06:45;13.00;99.90
21744;DHT22;11034;48.556;9.342;2023-11-19T15:09:15;13.00;99.90
21744;DHT22;11034;48.556;9.342;2023-11-19T15:11:53;12.90;99.90
21744;DHT22;11034;48.556;9.342;2023-11-19T15:14:25;12.90;99.90
21744;DHT22;11034;48.556;9.342;2023-11-19T15:16:56;12.80;99.90
21744;DHT22;11034;48.556;9.342;2023-11-19T15:19:25;12.80;99.90
21744;DHT22;11034;48.556;9.342;2023-11-19T15:21:53;12.70;99.90
21744;DHT22;11034;48.556;9.342;2023-11-19T15:24:22;12.70;99.90
21744;DHT22;11034;48.556;9.342;2023-11-19T15:26:52;12.60;99.90
21744;DHT22;11034;48.556;9.342;2023-11-19T15:29:40;12.60;99.90
21744;DHT22;11034;48.556;9.342;2023-11-19T15:32:09;12.60;99.90
21744;DHT22;11034;48.556;9.342;2023-11-19T15:34:38;12.50;99.90
21744;DHT22;11034;48.556;9.342;2023-11-19T15:37:08;12.50;99.90
21744;DHT22;11034;48.556;9.342;2023-11-19T15:39:39;12.50;99.90
21744;DHT22;11034;48.556;9.342;2023-11-19T15:42:07;12.50;99.90
21744;DHT22;11034;48.556;9.342;2023-11-19T15:44:37;12.40;99.90
21744;DHT22;11034;48.556;9.342;2023-11-19T15:47:06;12.40;99.90
21744;DHT22;11034;48.556;9.342;2023-11-19T15:49:38;12.30;99.90
21744;DHT22;11034;48.556;9.342;2023-11-19T15:52:06;12.20;99.90
21744;DHT22;11034;48.556;9.342;2023-11-19T15:54:34;12.20;99.90
21744;DHT22;11034;48.556;9.342;2023-11-19T15:57:04;12.20;99.90
21744;DHT22;11034;48.556;9.342;2023-11-19T15:59:32;12.20;99.90
21744;DHT22;11034;48.556;9.342;2023-11-19T16:02:01;12.20;99.90
21744;DHT22;11034;48.556;9.342;2023-11-19T16:04:29;12.10;99.90
21744;DHT22;11034;48.556;9.342;2023-11-19T16:06:59;12.00;99.90
21744;DHT22;11034;48.556;9.342;2023-11-19T16:09:27;11.90;99.90
21744;DHT22;11034;48.556;9.342;2023-11-19T16:11:55;11.80;99.90
21744;DHT22;11034;48.556;9.342;2023-11-19T16:14:23;11.80;99.90
21744;DHT22;11034;48.556;9.342;2023-11-19T16:16:52;11.70;99.90
21744;DHT22;11034;48.556;9.342;2023-11-19T16:19:20;11.70;99.90
21744;DHT22;11034;48.556;9.342;2023-11-19T16:21:48;11.60;99.90
21744;DHT22;11034;48.556;9.342;2023-11-19T16:24:18;11.60;99.90
21744;DHT22;11034;48.556;9.342;2023-11-19T16:26:46;11.60;99.90
21744;DHT22;11034;48.556;9.342;2023-11-19T16:29:15;11.60;99.90
21744;DHT22;11034;48.556;9.342;2023-11-19T16:31:43;11.60;99.90
21744;DHT22;11034;48.556;9.342;2023-11-19T16:34:11;11.60;99.90
21744;DHT22;11034;48.556;9.342;2023-11-19T16:36:39;11.60;99.90
21744;DHT22;11034;48.556;9.342;2023-11-19T16:39:08;11.60;99.90
21744;DHT22;11034;48.556;9.342;2023-11-19T16:41:41;11.60;99.90
21744;DHT22;11034;48.556;9.342;2023-11-19T16:44:10;11.70;99.90
21744;DHT22;11034;48.556;9.342;2023-11-19T16:46:38;11.70;99.90
21744;DHT22;11034;48.556;9.342;2023-11-19T16:49:06;11.60;99.90
21744;DHT22;11034;48.556;9.342;2023-11-19T16:51:35;11.60;99.90
21744;DHT22;11034;48.556;9.342;2023-11-19T16:54:03;11.50;99.90
21744;DHT22;11034;48.556;9.342;2023-11-19T16:56:32;11.50;99.90
21744;DHT22;11034;48.556;9.342;2023-11-19T16:59:02;11.40;99.90
21744;DHT22;11034;48.556;9.342;2023-11-19T17:01:30;11.30;99.90
21744;DHT22;11034;48.556;9.342;2023-11-19T17:03:58;11.30;99.90
21744;DHT22;11034;48.556;9.342;2023-11-19T17:06:27;11.20;99.90
21744;DHT22;11034;48.556;9.342;2023-11-19T17:08:55;11.10;99.90
21744;DHT22;11034;48.556;9.342;2023-11-19T17:11:28;11.10;99.90
21744;DHT22;11034;48.556;9.342;2023-11-19T17:13:57;11.00;99.90
21744;DHT22;11034;48.556;9.342;2023-11-19T17:16:27;10.90;99.90
21744;DHT22;11034;48.556;9.342;2023-11-19T17:18:55;10.90;99.90
21744;DHT22;11034;48.556;9.342;2023-11-19T17:21:23;11.00;99.90
21744;DHT22;11034;48.556;9.342;2023-11-19T17:23:52;10.90;99.90
21744;DHT22;11034;48.556;9.342;2023-11-19T17:26:20;10.80;99.90
21744;DHT22;11034;48.556;9.342;2023-11-19T17:28:48;10.80;99.90
21744;DHT22;11034;48.556;9.342;2023-11-19T17:31:16;10.70;99.90
21744;DHT22;11034;48.556;9.342;2023-11-19T17:33:46;10.60;99.90
21744;DHT22;11034;48.556;9.342;2023-11-19T17:36:14;10.60;99.90
21744;DHT22;11034;48.556;9.342;2023-11-19T17:38:42;10.60;99.90
21744;DHT22;11034;48.556;9.342;2023-11-19T17:41:10;10.70;99.90
21744;DHT22;11034;48.556;9.342;2023-11-19T17:43:39;10.60;99.90
21744;DHT22;11034;48.556;9.342;2023-11-19T17:46:07;10.60;99.90
21744;DHT22;11034;48.556;9.342;2023-11-19T17:48:35;10.50;99.90
21744;DHT22;11034;48.556;9.342;2023-11-19T17:51:05;10.50;99.90
21744;DHT22;11034;48.556;9.342;2023-11-19T17:53:33;10.50;99.90
21744;DHT22;11034;48.556;9.342;2023-11-19T17:56:05;10.60;99.90
21744;DHT22;11034;48.556;9.342;2023-11-19T17:58:36;10.60;99.90
21744;DHT22;11034;48.556;9.342;2023-11-19T18:01:12;10.50;99.90
21744;DHT22;11034;48.556;9.342;2023-11-19T18:03:40;10.50;99.90
21744;DHT22;11034;48.556;9.342;2023-11-19T18:06:16;10.50;99.90
21744;DHT22;11034;48.556;9.342;2023-11-19T18:08:45;10.50;99.90
21744;DHT22;11034;48.556;9.342;2023-11-19T18:11:13;10.50;99.90
21744;DHT22;11034;48.556;9.342;2023-11-19T18:13:42;10.60;99.90
21744;DHT22;11034;48.556;9.342;2023-11-19T18:19:00;10.70;99.90
21744;DHT22;11034;48.556;9.342;2023-11-19T18:21:30;10.70;99.90
21744;DHT22;11034;48.556;9.342;2023-11-19T18:23:59;10.70;99.90
21744;DHT22;11034;48.556;9.342;2023-11-19T18:26:27;10.70;99.90
21744;DHT22;11034;48.556;9.342;2023-11-19T18:28:58;10.70;99.90
21744;DHT22;11034;48.556;9.342;2023-11-19T18:31:30;10.60;99.90
21744;DHT22;11034;48.556;9.342;2023-11-19T18:34:00;10.50;99.90
21744;DHT22;11034;48.556;9.342;2023-11-19T18:36:36;10.50;99.90
21744;DHT22;11034;48.556;9.342;2023-11-19T18:39:05;10.50;99.90
21744;DHT22;11034;48.556;9.342;2023-11-19T18:41:36;10.50;99.90
21744;DHT22;11034;48.556;9.342;2023-11-19T18:44:05;10.50;99.90
21744;DHT22;11034;48.556;9.342;2023-11-19T18:46:34;10.50;99.90
21744;DHT22;11034;48.556;9.342;2023-11-19T18:49:02;10.40;99.90
21744;DHT22;11034;48.556;9.342;2023-11-19T18:51:33;10.40;99.90
21744;DHT22;11034;48.556;9.342;2023-11-19T18:54:02;10.40;99.90
21744;DHT22;11034;48.556;9.342;2023-11-19T18:56:30;10.40;99.90
21744;DHT22;11034;48.556;9.342;2023-11-19T18:58:58;10.40;99.90
21744;DHT22;11034;48.556;9.342;2023-11-19T19:01:27;10.40;99.90
21744;DHT22;11034;48.556;9.342;2023-11-19T19:03:57;10.40;99.90
21744;DHT22;11034;48.556;9.342;2023-11-19T19:06:26;10.30;99.90
21744;DHT22;11034;48.556;9.342;2023-11-19T19:08:57;10.30;99.90
21744;DHT22;11034;48.556;9.342;2023-11-19T19:11:25;10.40;99.90
21744;DHT22;11034;48.556;9.342;2023-11-19T19:13:57;10.40;99.90
21744;DHT22;11034;48.556;9.342;2023-11-19T19:16:27;10.50;99.90
21744;DHT22;11034;48.556;9.342;2023-11-19T19:19:04;10.50;99.90
21744;DHT22;11034;48.556;9.342;2023-11-19T19:40:03;10.50;99.90
21744;DHT22;11034;48.556;9.342;2023-11-19T19:42:49;10.50;99.90
21744;DHT22;11034;48.556;9.342;2023-11-19T19:45:34;10.50;99.90
21744;DHT22;11034;48.556;9.342;2023-11-19T19:48:26;10.50;99.90
21744;DHT22;11034;48.556;9.342;2023-11-19T19:50:55;10.60;99.90
21744;DHT22;11034;48.556;9.342;2023-11-19T19:53:23;10.70;99.90
21744;DHT22;11034;48.556;9.342;2023-11-19T19:55:59;10.70;99.90
21744;DHT22;11034;48.556;9.342;2023-11-19T20:02:10;10.80;99.90
21744;DHT22;11034;48.556;9.342;2023-11-19T20:05:17;10.80;99.90
21744;DHT22;11034;48.556;9.342;2023-11-19T22:27:37;9.80;99.90
21744;DHT22;11034;48.556;9.342;2023-11-19T22:30:19;9.70;99.90
21744;DHT22;11034;48.556;9.342;2023-11-19T22:32:54;9.70;99.90
21744;DHT22;11034;48.556;9.342;2023-11-19T22:35:22;9.60;99.90
21744;DHT22;11034;48.556;9.342;2023-11-19T22:37:50;9.60;99.90
21744;DHT22;11034;48.556;9.342;2023-11-19T22:40:18;9.60;99.90
21744;DHT22;11034;48.556;9.342;2023-11-19T22:42:48;9.60;99.90
21744;DHT22;11034;48.556;9.342;2023-11-19T22:45:17;9.60;99.90
21744;DHT22;11034;48.556;9.342;2023-11-19T22:47:45;9.60;99.90
21744;DHT22;11034;48.556;9.342;2023-11-19T22:50:17;9.50;99.90
21744;DHT22;11034;48.556;9.342;2023-11-19T22:52:45;9.50;99.90
21744;DHT22;11034;48.556;9.342;2023-11-19T22:55:18;9.40;99.90
21744;DHT22;11034;48.556;9.342;2023-11-19T22:57:48;9.40;99.90
21744;DHT22;11034;48.556;9.342;2023-11-19T23:00:20;9.40;99.90
21744;DHT22;11034;48.556;9.342;2023-11-19T23:02:55;9.40;99.90
21744;DHT22;11034;48.556;9.342;2023-11-19T23:05:24;9.50;99.90
21744;DHT22;11034;48.556;9.342;2023-11-19T23:07:57;9.60;99.90
21744;DHT22;11034;48.556;9.342;2023-11-19T23:10:27;9.70;99.90
21744;DHT22;11034;48.556;9.342;2023-11-19T23:13:06;9.70;99.90
21744;DHT22;11034;48.556;9.342;2023-11-19T23:15:36;9.80;99.90
21744;DHT22;11034;48.556;9.342;2023-11-19T23:18:04;9.80;99.90
21744;DHT22;11034;48.556;9.342;2023-11-19T23:20:33;9.80;99.90
21744;DHT22;11034;48.556;9.342;2023-11-19T23:23:01;9.70;99.90
21744;DHT22;11034;48.556;9.342;2023-11-19T23:25:29;9.70;99.90
21744;DHT22;11034;48.556;9.342;2023-11-19T23:27:59;9.60;99.90
21744;DHT22;11034;48.556;9.342;2023-11-19T23:30:29;9.60;99.90
21744;DHT22;11034;48.556;9.342;2023-11-19T23:32:57;9.60;99.90
21744;DHT22;11034;48.556;9.342;2023-11-19T23:35:28;9.70;99.90
21744;DHT22;11034;48.556;9.342;2023-11-19T23:37:59;9.70;99.90
21744;DHT22;11034;48.556;9.342;2023-11-19T23:40:31;9.80;99.90
21744;DHT22;11034;48.556;9.342;2023-11-19T23:43:02;9.80;99.90
21744;DHT22;11034;48.556;9.342;2023-11-19T23:45:32;9.80;99.90
21744;DHT22;11034;48.556;9.342;2023-11-19T23:48:03;9.80;99.90
21744;DHT22;11034;48.556;9.342;2023-11-19T23:50:31;9.90;99.90
21744;DHT22;11034;48.556;9.342;2023-11-19T23:53:02;9.80;99.90
21744;DHT22;11034;48.556;9.342;2023-11-19T23:55:31;9.80;99.90
21744;DHT22;11034;48.556;9.342;2023-11-19T23:57:59;9.70;99.90
